AirportWindKnotsOPERATIONSMETAR
KBWI320328(D) 33L(A) 33R(A/D)-PROPS KBWI 240954Z 32003KT 10SM BKN080 19/15 A2994 RMK AO2 SLP136 T01940150
KDCA31071 (D/A) 33 (D/A)-RJ/PROPS KDCA 240952Z 31007KT 10SM OVC080 23/14 A2994 RMK AO2 SLP139 T02280144
KIAD300330 (D) 19L/19C/19R (A) KIAD 240952Z 30003KT 10SM OVC075 19/16 A2996 RMK AO2 SLP141 BINOVC T01890156
KRDU04065L/5R (D/A) KRDU 240951Z 04006KT 10SM FEW004 FEW026 BKN110 BKN250 23/22 A2990 RMK AO2 SLP121 T02330222 $



The information contained on all pages of this website is to be used for flight simulation purposes only on the VATSIM network. It is not intended nor should it be used for real world navigation.This site is not affiliated with the FAA, the actual Washington Center or any governing aviation body. All content contained herein is approved only for use on the VATSIM network. ©2016 Virtual Washington ARTCC -- Source Code © 2016-2017 R. Rump, R. Murphy, W. Guisbond. Some scripts provided by VATEUD and VATUSA. Logo icons created by the Noun Project, CC 17.